Time;durP1;ratioP1;P1;durP2;ratioP2;P2;SDS_P1;SDS_P2;PMS_P1;PMS_P2;Temp;Humidity;BMP_temperature;BMP_pressure;BME280_temperature;BME280_humidity;BME280_pressure;Samples;Min_cycle;Max_cycle;Signal;HPM_P1;HPM_P2
2022/03/29 00:00:00;;;;;;;11.23;4.88;;;18.60;56.90;;;;;;5046739;28;20056;-61
2022/03/29 00:02:25;;;;;;;10.27;5.18;;;18.60;56.90;;;;;;5045278;28;20044;-61
2022/03/29 00:04:51;;;;;;;9.45;5.03;;;18.60;56.90;;;;;;5046142;28;20029;-61
2022/03/29 00:07:17;;;;;;;9.30;4.88;;;18.60;56.90;;;;;;5046912;28;20103;-61
2022/03/29 00:09:42;;;;;;;11.30;4.97;;;18.60;56.90;;;;;;5043453;28;20143;-61
2022/03/29 00:12:08;;;;;;;9.02;4.97;;;18.60;56.90;;;;;;5048316;28;20405;-61
2022/03/29 00:14:34;;;;;;;8.70;4.63;;;18.60;56.90;;;;;;5048311;28;20025;-61
2022/03/29 00:17:00;;;;;;;9.75;4.72;;;18.50;56.80;;;;;;5046087;28;20060;-61
2022/03/29 00:19:26;;;;;;;9.82;4.95;;;18.50;56.90;;;;;;5045886;28;20393;-61
2022/03/29 00:21:51;;;;;;;9.23;4.68;;;18.50;56.90;;;;;;5042981;28;20052;-61
2022/03/29 00:24:17;;;;;;;8.30;4.63;;;18.50;56.90;;;;;;5047312;28;20025;-61
2022/03/29 00:26:43;;;;;;;11.30;5.00;;;18.50;56.90;;;;;;5044473;28;20573;-61
2022/03/29 00:29:08;;;;;;;9.30;4.82;;;18.50;56.90;;;;;;5047051;28;20768;-61
2022/03/29 00:31:34;;;;;;;10.38;4.80;;;18.50;56.90;;;;;;5044278;28;20103;-61
2022/03/29 00:34:00;;;;;;;8.52;4.28;;;18.50;56.90;;;;;;5046268;28;21016;-61
2022/03/29 00:36:27;;;;;;;9.23;4.78;;;18.50;56.90;;;;;;5044546;28;20037;-61
2022/03/29 00:38:54;;;;;;;8.70;4.57;;;18.50;56.90;;;;;;5044630;28;20517;-61
2022/03/29 00:41:20;;;;;;;8.93;4.47;;;18.50;56.90;;;;;;5041635;28;20091;-61
2022/03/29 00:43:46;;;;;;;9.65;4.63;;;18.40;56.90;;;;;;5043289;28;20564;-61
2022/03/29 00:46:11;;;;;;;8.60;4.70;;;18.40;56.80;;;;;;5043188;28;20028;-61
2022/03/29 00:48:38;;;;;;;9.43;4.53;;;18.40;56.90;;;;;;5041574;28;20025;-61
2022/03/29 00:51:04;;;;;;;8.45;4.38;;;18.40;56.90;;;;;;5046464;28;20108;-61
2022/03/29 00:53:30;;;;;;;11.27;4.55;;;18.40;56.80;;;;;;5047468;28;20029;-61
2022/03/29 00:55:55;;;;;;;10.30;4.45;;;18.40;56.80;;;;;;5042531;28;20028;-61
2022/03/29 00:58:21;;;;;;;8.50;4.50;;;18.40;56.80;;;;;;5046861;28;20028;-61
2022/03/29 01:00:47;;;;;;;9.10;4.35;;;18.40;56.80;;;;;;5045812;28;20532;-61
2022/03/29 01:03:13;;;;;;;8.38;4.47;;;18.40;56.80;;;;;;5060954;28;20040;-61
2022/03/29 01:05:38;;;;;;;9.27;4.43;;;18.40;56.80;;;;;;5047117;28;20061;-61
2022/03/29 01:08:05;;;;;;;9.18;4.30;;;18.40;56.80;;;;;;5042575;28;20071;-61
2022/03/29 01:10:30;;;;;;;7.88;4.53;;;18.40;56.80;;;;;;5042179;28;20029;-61
2022/03/29 01:12:56;;;;;;;10.80;5.00;;;18.40;56.80;;;;;;5057574;28;20032;-61
2022/03/29 01:15:27;;;;;;;9.27;4.60;;;18.30;56.80;;;;;;5045892;28;20037;-61
2022/03/29 01:17:54;;;;;;;8.98;4.25;;;18.30;56.80;;;;;;5044464;28;20063;-61
2022/03/29 01:20:30;;;;;;;8.70;4.57;;;18.30;56.80;;;;;;5045992;28;20037;-61
2022/03/29 01:22:56;;;;;;;9.75;4.45;;;18.30;56.80;;;;;;5043346;28;20115;-60
2022/03/29 01:25:28;;;;;;;9.82;4.18;;;18.30;56.80;;;;;;5045097;28;20032;-60
2022/03/29 01:27:53;;;;;;;9.73;4.63;;;18.30;56.90;;;;;;5033708;28;20031;-61
2022/03/29 01:30:20;;;;;;;9.82;4.70;;;18.30;56.80;;;;;;5044340;28;20099;-61
2022/03/29 01:32:50;;;;;;;9.07;4.30;;;18.30;56.80;;;;;;5046836;28;20037;-60
2022/03/29 01:35:17;;;;;;;9.00;4.18;;;18.30;56.80;;;;;;5047137;28;20017;-61
2022/03/29 01:37:43;;;;;;;8.38;4.30;;;18.20;56.80;;;;;;5044238;28;20118;-61
2022/03/29 01:40:10;;;;;;;10.27;4.50;;;18.20;56.80;;;;;;5045031;28;20059;-61
2022/03/29 01:42:36;;;;;;;9.15;4.53;;;18.20;56.80;;;;;;5044668;28;20029;-61
2022/03/29 01:45:02;;;;;;;8.10;3.95;;;18.20;56.70;;;;;;5045787;28;20025;-61
2022/03/29 01:47:27;;;;;;;8.43;4.50;;;18.20;56.80;;;;;;5046567;28;20064;-60
2022/03/29 01:49:53;;;;;;;8.27;4.35;;;18.20;56.70;;;;;;5042009;28;20041;-61
2022/03/29 01:52:19;;;;;;;8.18;4.20;;;18.20;56.80;;;;;;5044037;28;20083;-61
2022/03/29 01:54:45;;;;;;;8.90;4.15;;;18.20;56.70;;;;;;5044557;28;20028;-61
2022/03/29 01:57:11;;;;;;;9.82;4.25;;;18.20;56.80;;;;;;5057591;28;20412;-61
2022/03/29 02:02:21;;;;;;;9.50;4.50;;;18.20;56.80;;;;;;5046346;28;20520;-61
2022/03/29 02:04:47;;;;;;;8.18;4.30;;;18.20;56.80;;;;;;5042756;28;20112;-60
2022/03/29 02:07:12;;;;;;;10.35;4.50;;;18.10;56.70;;;;;;5045123;28;20029;-61
2022/03/29 02:09:38;;;;;;;8.77;3.80;;;18.20;56.70;;;;;;5045822;28;20067;-61
2022/03/29 02:12:05;;;;;;;9.30;4.47;;;18.10;56.70;;;;;;5043095;28;20021;-61
2022/03/29 02:14:34;;;;;;;8.65;4.05;;;18.10;56.70;;;;;;5044124;28;20029;-61
2022/03/29 02:17:00;;;;;;;9.50;4.20;;;18.10;56.70;;;;;;5045559;28;20140;-61
2022/03/29 02:19:26;;;;;;;7.40;4.10;;;18.10;56.70;;;;;;5044798;28;20037;-60
2022/03/29 02:21:51;;;;;;;9.27;4.30;;;18.10;56.70;;;;;;5045266;28;20040;-61
2022/03/29 02:24:17;;;;;;;7.97;4.20;;;18.10;56.70;;;;;;5045583;28;20512;-60
2022/03/29 02:26:43;;;;;;;8.93;4.15;;;18.10;56.80;;;;;;5046300;28;20029;-61
2022/03/29 02:29:09;;;;;;;7.15;3.75;;;18.10;56.90;;;;;;5044708;28;20389;-61
2022/03/29 02:31:35;;;;;;;9.48;4.72;;;18.10;56.80;;;;;;5043381;28;20028;-61
2022/03/29 02:34:01;;;;;;;9.43;4.50;;;18.10;56.80;;;;;;5045163;28;20044;-61
2022/03/29 02:36:27;;;;;;;7.50;4.00;;;18.00;56.70;;;;;;5044254;28;20079;-61
2022/03/29 02:38:53;;;;;;;8.45;4.10;;;18.00;56.70;;;;;;5045537;28;20249;-61
2022/03/29 02:41:18;;;;;;;8.57;3.90;;;18.00;56.70;;;;;;5044282;28;20025;-61
2022/03/29 02:43:44;;;;;;;7.03;3.95;;;18.00;56.80;;;;;;5045064;28;20037;-61
2022/03/29 02:46:10;;;;;;;8.43;3.78;;;18.00;56.80;;;;;;5043952;28;20029;-60
2022/03/29 02:48:35;;;;;;;7.22;4.00;;;18.00;56.80;;;;;;5045457;28;20492;-61
2022/03/29 02:51:01;;;;;;;7.57;3.80;;;18.00;56.80;;;;;;5041482;28;20032;-60
2022/03/29 02:53:27;;;;;;;7.55;3.88;;;18.00;56.80;;;;;;5045815;28;20036;-61
2022/03/29 02:55:52;;;;;;;10.52;4.10;;;18.00;56.80;;;;;;5047019;28;20098;-61
2022/03/29 02:58:18;;;;;;;8.45;4.15;;;18.00;56.80;;;;;;5048674;28;20032;-60
2022/03/29 03:00:44;;;;;;;9.13;4.28;;;18.00;56.80;;;;;;5047022;28;20036;-61
2022/03/29 03:03:09;;;;;;;8.60;4.25;;;18.00;56.80;;;;;;5045012;28;20033;-61
2022/03/29 03:05:35;;;;;;;8.98;4.10;;;18.00;56.70;;;;;;5047519;28;20100;-61
2022/03/29 03:08:02;;;;;;;7.13;3.85;;;18.00;56.60;;;;;;5046886;28;20059;-61
2022/03/29 03:10:28;;;;;;;7.88;3.65;;;18.00;56.70;;;;;;5048062;28;20025;-61
2022/03/29 03:12:53;;;;;;;7.20;4.10;;;18.00;56.70;;;;;;5046379;28;20028;-61
2022/03/29 03:15:22;;;;;;;7.82;3.85;;;18.00;57.10;;;;;;5047853;28;20104;-61
2022/03/29 03:17:50;;;;;;;9.65;4.28;;;18.00;57.20;;;;;;5047948;28;20112;-61
2022/03/29 03:20:17;;;;;;;7.70;3.70;;;18.00;57.20;;;;;;5045484;28;20021;-61
2022/03/29 03:22:43;;;;;;;8.55;3.55;;;18.00;57.20;;;;;;5047762;28;20044;-61
2022/03/29 03:25:09;;;;;;;7.63;3.78;;;18.00;57.20;;;;;;5045706;28;20021;-61
2022/03/29 03:27:35;;;;;;;9.90;3.85;;;18.00;58.30;;;;;;5045461;28;20021;-60
2022/03/29 03:30:01;;;;;;;10.65;3.80;;;18.00;57.60;;;;;;5044909;28;20029;-61
2022/03/29 03:32:27;;;;;;;8.93;3.97;;;18.00;57.60;;;;;;5048884;28;20048;-61
2022/03/29 03:34:53;;;;;;;7.80;4.40;;;18.00;57.70;;;;;;5048754;28;20025;-61
2022/03/29 03:37:18;;;;;;;8.15;3.95;;;17.90;58.00;;;;;;5046584;28;20071;-61
2022/03/29 03:39:44;;;;;;;8.00;3.95;;;17.90;59.30;;;;;;5048027;28;20406;-61
2022/03/29 03:42:09;;;;;;;10.18;4.07;;;18.00;58.40;;;;;;5040322;28;20760;-61
2022/03/29 03:44:38;;;;;;;8.65;4.20;;;17.90;58.10;;;;;;5043077;28;20024;-61
2022/03/29 03:47:10;;;;;;;8.05;4.10;;;17.90;58.20;;;;;;5045325;28;20036;-60
2022/03/29 03:49:38;;;;;;;10.10;4.18;;;17.90;58.20;;;;;;5041311;28;20037;-60
2022/03/29 03:52:04;;;;;;;7.75;4.03;;;17.90;58.30;;;;;;5043569;28;20022;-61
2022/03/29 03:54:32;;;;;;;9.38;4.43;;;17.90;58.30;;;;;;5042318;28;20033;-61
2022/03/29 03:56:57;;;;;;;10.70;3.80;;;17.90;58.00;;;;;;5044362;28;20492;-60
2022/03/29 03:59:23;;;;;;;8.85;3.97;;;17.90;58.30;;;;;;5045184;28;20033;-60
2022/03/29 04:01:48;;;;;;;8.20;4.35;;;17.90;58.10;;;;;;5044053;28;20112;-61
2022/03/29 04:04:14;;;;;;;8.77;3.88;;;17.90;58.30;;;;;;5046028;28;20025;-61
2022/03/29 04:06:40;;;;;;;9.02;4.15;;;17.90;58.00;;;;;;5047004;28;20029;-61
2022/03/29 04:09:06;;;;;;;10.23;4.20;;;17.90;58.10;;;;;;5044970;28;20082;-61
2022/03/29 04:11:32;;;;;;;9.38;4.00;;;17.90;58.20;;;;;;5045687;28;20049;-61
2022/03/29 04:13:58;;;;;;;8.18;4.05;;;17.90;58.20;;;;;;5043078;28;20566;-61
2022/03/29 04:16:25;;;;;;;10.80;4.20;;;17.90;58.10;;;;;;5046897;28;20045;-60
2022/03/29 04:18:51;;;;;;;10.48;4.18;;;17.90;58.20;;;;;;5044744;28;20031;-61
2022/03/29 04:21:17;;;;;;;9.80;4.22;;;17.80;58.00;;;;;;5046926;28;20017;-61
2022/03/29 04:23:43;;;;;;;9.20;4.10;;;17.80;58.10;;;;;;5046867;28;20504;-61
2022/03/29 04:26:08;;;;;;;9.57;3.97;;;17.80;58.00;;;;;;5043222;28;20094;-61
2022/03/29 04:28:34;;;;;;;9.27;4.07;;;17.80;58.00;;;;;;5041643;28;20037;-60
2022/03/29 04:31:00;;;;;;;8.27;3.67;;;17.80;58.00;;;;;;5043280;28;20119;-61
2022/03/29 04:33:26;;;;;;;9.02;3.75;;;17.80;58.00;;;;;;5042855;28;20037;-61
2022/03/29 04:35:52;;;;;;;9.30;3.80;;;17.80;58.00;;;;;;5043224;28;20100;-61
2022/03/29 04:38:17;;;;;;;8.52;3.85;;;17.80;58.00;;;;;;5047624;28;20127;-60
2022/03/29 04:40:43;;;;;;;9.10;3.88;;;17.80;58.00;;;;;;5044356;28;20025;-60
2022/03/29 04:43:09;;;;;;;9.95;4.03;;;17.80;58.10;;;;;;5041661;28;20040;-61
2022/03/29 04:45:34;;;;;;;10.57;3.80;;;17.80;58.10;;;;;;5044229;28;20024;-60
2022/03/29 04:48:01;;;;;;;8.05;3.90;;;17.80;58.20;;;;;;5044712;28;20052;-60
2022/03/29 04:50:26;;;;;;;9.43;4.00;;;17.70;58.00;;;;;;5044842;28;20515;-60
2022/03/29 04:52:52;;;;;;;8.00;3.70;;;17.80;58.30;;;;;;5042619;28;20195;-60
2022/03/29 04:55:18;;;;;;;12.10;3.65;;;17.70;58.40;;;;;;5042827;28;20512;-61
2022/03/29 04:57:45;;;;;;;11.07;4.50;;;17.70;58.40;;;;;;5043400;28;20024;-61
2022/03/29 05:00:12;;;;;;;10.63;4.03;;;17.70;58.70;;;;;;5043674;28;20044;-61
2022/03/29 05:02:41;;;;;;;10.80;4.28;;;17.70;58.70;;;;;;5042051;28;20033;-61
2022/03/29 05:05:08;;;;;;;8.90;3.80;;;17.80;58.90;;;;;;5044100;28;20116;-61
2022/03/29 05:07:33;;;;;;;10.40;4.07;;;17.80;58.80;;;;;;5043006;28;20067;-61
2022/03/29 05:09:59;;;;;;;9.88;3.92;;;17.80;59.10;;;;;;5046370;28;20443;-61
2022/03/29 05:12:25;;;;;;;8.25;3.75;;;17.80;59.20;;;;;;5044869;28;20037;-61
2022/03/29 05:14:51;;;;;;;11.57;3.95;;;17.80;59.20;;;;;;5046121;28;20033;-61
2022/03/29 05:17:16;;;;;;;14.52;4.07;;;17.70;59.10;;;;;;5044988;28;20044;-61
2022/03/29 05:19:42;;;;;;;9.75;3.80;;;17.70;59.20;;;;;;5042876;28;20029;-61
2022/03/29 05:22:08;;;;;;;9.82;4.05;;;17.70;59.70;;;;;;5036296;28;20039;-62
2022/03/29 05:24:34;;;;;;;13.30;3.85;;;17.80;60.50;;;;;;5040659;28;20021;-62
2022/03/29 05:26:59;;;;;;;13.77;3.90;;;17.70;60.10;;;;;;5038209;28;20525;-62
2022/03/29 05:29:27;;;;;;;13.98;4.20;;;17.80;60.10;;;;;;5038083;28;20459;-62
2022/03/29 05:31:54;;;;;;;15.15;4.43;;;17.80;61.30;;;;;;5042161;28;20055;-62
2022/03/29 05:34:19;;;;;;;11.20;4.40;;;17.80;60.20;;;;;;5041780;28;20021;-62
2022/03/29 05:36:46;;;;;;;11.98;4.40;;;17.80;61.50;;;;;;5044552;28;20032;-62
2022/03/29 05:39:13;;;;;;;9.73;3.95;;;17.80;60.60;;;;;;5044036;28;20105;-62
2022/03/29 05:41:40;;;;;;;14.07;4.35;;;17.80;60.60;;;;;;5045610;28;20473;-61
2022/03/29 05:44:06;;;;;;;13.88;4.00;;;17.80;60.60;;;;;;5045396;28;20897;-61
2022/03/29 05:49:16;;;;;;;11.68;4.30;;;17.70;60.10;;;;;;5044041;28;20052;-61
2022/03/29 05:51:42;;;;;;;9.88;3.95;;;17.70;60.10;;;;;;5044969;28;20473;-61
2022/03/29 05:54:07;;;;;;;9.85;4.25;;;17.70;59.90;;;;;;5044724;28;20043;-61
2022/03/29 05:56:33;;;;;;;10.07;4.03;;;17.70;60.10;;;;;;5043169;28;20037;-62
2022/03/29 05:58:59;;;;;;;12.02;4.10;;;17.60;59.80;;;;;;5050228;28;20086;-61
2022/03/29 06:01:25;;;;;;;9.30;3.80;;;17.60;60.10;;;;;;5048822;28;20485;-61
2022/03/29 06:03:50;;;;;;;10.13;3.90;;;17.60;59.80;;;;;;5048773;28;20036;-61
2022/03/29 06:06:16;;;;;;;11.35;4.10;;;17.60;59.80;;;;;;5048200;28;20029;-61
2022/03/29 06:08:42;;;;;;;10.35;3.80;;;17.60;59.70;;;;;;5049618;28;20030;-61
2022/03/29 06:11:07;;;;;;;10.68;4.40;;;17.60;59.80;;;;;;5050240;28;20029;-62
2022/03/29 06:13:33;;;;;;;11.73;4.00;;;17.60;59.80;;;;;;5044871;28;20036;-61
2022/03/29 06:15:59;;;;;;;11.10;4.20;;;17.60;59.80;;;;;;5045425;28;20072;-61
2022/03/29 06:18:25;;;;;;;14.85;4.22;;;17.60;59.80;;;;;;5042861;28;20041;-61
2022/03/29 06:20:51;;;;;;;8.13;3.83;;;17.60;59.60;;;;;;5045283;28;20033;-62
2022/03/29 06:23:16;;;;;;;11.70;3.90;;;17.60;59.70;;;;;;5046205;28;20501;-61
2022/03/29 06:25:42;;;;;;;11.05;4.10;;;17.50;59.50;;;;;;5044060;28;20105;-61
2022/03/29 06:28:10;;;;;;;9.82;4.20;;;17.50;59.60;;;;;;5045743;28;20066;-61
2022/03/29 06:30:37;;;;;;;8.82;3.80;;;17.50;59.40;;;;;;5049055;28;20104;-61
2022/03/29 06:33:02;;;;;;;9.13;3.78;;;17.50;59.50;;;;;;5049874;28;20056;-61
2022/03/29 06:35:28;;;;;;;8.88;3.90;;;17.50;59.50;;;;;;5049409;28;20068;-61
2022/03/29 06:37:58;;;;;;;10.60;3.88;;;17.50;59.50;;;;;;5049140;28;20076;-62
2022/03/29 06:40:25;;;;;;;10.20;3.78;;;17.50;59.50;;;;;;5049496;28;20029;-61
2022/03/29 06:42:51;;;;;;;10.23;4.30;;;17.50;59.40;;;;;;5048363;28;20029;-61
2022/03/29 06:45:17;;;;;;;9.90;4.22;;;17.50;59.40;;;;;;5047983;28;20051;-61
2022/03/29 06:47:43;;;;;;;8.77;3.90;;;17.40;59.40;;;;;;5049715;28;20108;-61
2022/03/29 06:50:09;;;;;;;8.35;4.05;;;17.40;59.40;;;;;;5048532;28;20454;-61
2022/03/29 06:52:38;;;;;;;10.90;4.20;;;17.40;59.40;;;;;;5049361;28;20031;-61
2022/03/29 06:55:05;;;;;;;10.25;4.03;;;17.40;59.50;;;;;;5048201;28;20497;-61
2022/03/29 06:57:31;;;;;;;10.98;3.95;;;17.50;59.50;;;;;;5043723;28;20032;-61
2022/03/29 06:59:57;;;;;;;9.13;4.07;;;17.40;59.50;;;;;;5048390;28;20033;-61
2022/03/29 07:02:22;;;;;;;7.68;3.70;;;17.50;59.40;;;;;;5048649;28;20040;-61
2022/03/29 07:04:48;;;;;;;9.70;4.10;;;17.40;59.40;;;;;;5044046;28;20040;-61
2022/03/29 07:07:14;;;;;;;10.25;3.95;;;17.40;59.40;;;;;;5048267;28;20478;-62
2022/03/29 07:12:24;;;;;;;9.17;4.40;;;17.40;59.50;;;;;;5043161;28;20040;-61
2022/03/29 07:14:50;;;;;;;8.80;4.40;;;17.40;59.40;;;;;;5047369;28;20017;-61
2022/03/29 07:17:17;;;;;;;9.75;4.13;;;17.40;59.50;;;;;;5049562;28;20024;-61
2022/03/29 07:19:43;;;;;;;9.70;3.88;;;17.40;59.30;;;;;;5046500;28;20036;-61
2022/03/29 07:22:08;;;;;;;8.95;4.00;;;17.40;59.40;;;;;;5045643;28;20029;-61
2022/03/29 07:24:34;;;;;;;9.25;4.10;;;17.40;59.40;;;;;;5048037;28;20074;-61
2022/03/29 07:27:00;;;;;;;9.35;4.00;;;17.40;59.30;;;;;;5047468;28;20033;-61
2022/03/29 07:29:26;;;;;;;9.50;3.78;;;17.30;59.20;;;;;;5049314;28;20846;-61
2022/03/29 07:31:52;;;;;;;8.98;4.20;;;17.30;59.20;;;;;;5047233;28;20032;-61
2022/03/29 07:34:18;;;;;;;11.30;4.07;;;17.40;59.30;;;;;;5047495;28;20114;-61
2022/03/29 07:36:44;;;;;;;9.77;4.20;;;17.40;59.30;;;;;;5047319;28;20542;-61
2022/03/29 07:39:10;;;;;;;9.95;4.15;;;17.40;59.30;;;;;;5046904;28;20021;-62
2022/03/29 07:41:35;;;;;;;9.27;4.07;;;17.40;59.30;;;;;;5049771;28;20397;-61
2022/03/29 07:44:02;;;;;;;10.07;4.13;;;17.30;59.20;;;;;;5047511;28;20037;-61
2022/03/29 07:46:28;;;;;;;11.38;4.22;;;17.30;59.20;;;;;;5047834;28;20025;-62
2022/03/29 07:48:54;;;;;;;8.60;3.97;;;17.40;59.20;;;;;;5043980;28;20036;-61
2022/03/29 07:51:19;;;;;;;11.55;4.25;;;17.40;59.30;;;;;;5048083;28;20432;-61
2022/03/29 07:53:47;;;;;;;10.38;4.00;;;17.40;59.20;;;;;;5046610;28;20428;-61
2022/03/29 07:56:12;;;;;;;8.10;3.72;;;17.40;59.20;;;;;;5048539;28;20036;-61
2022/03/29 07:58:38;;;;;;;11.13;4.45;;;17.30;59.10;;;;;;5045414;28;20025;-61
2022/03/29 08:01:04;;;;;;;9.02;4.10;;;17.40;59.20;;;;;;5047390;28;20047;-62
2022/03/29 08:03:33;;;;;;;11.52;4.00;;;17.40;59.20;;;;;;5041529;28;20524;-61
2022/03/29 08:06:00;;;;;;;11.25;4.07;;;17.40;59.00;;;;;;5047262;28;20041;-61
2022/03/29 08:08:25;;;;;;;9.23;3.95;;;17.40;59.00;;;;;;5048555;28;20040;-61
2022/03/29 08:10:51;;;;;;;10.05;4.28;;;17.40;59.10;;;;;;5047574;28;20029;-61
2022/03/29 08:13:18;;;;;;;9.90;4.15;;;17.40;59.20;;;;;;5047660;28;20560;-61
2022/03/29 08:15:45;;;;;;;9.07;4.50;;;17.40;59.10;;;;;;5043503;28;20032;-61
2022/03/29 08:18:10;;;;;;;9.60;4.03;;;17.40;59.10;;;;;;5046628;28;20024;-61
2022/03/29 08:20:37;;;;;;;10.13;3.90;;;17.40;59.00;;;;;;5048677;28;20021;-61
2022/03/29 08:23:02;;;;;;;8.77;4.07;;;17.40;58.90;;;;;;5046959;28;20128;-61
2022/03/29 08:25:29;;;;;;;10.73;4.25;;;17.40;58.90;;;;;;5044727;28;20168;-61
2022/03/29 08:27:56;;;;;;;8.95;4.07;;;17.50;58.90;;;;;;5046981;28;20040;-62
2022/03/29 08:30:22;;;;;;;9.38;4.30;;;17.40;58.80;;;;;;5046051;28;20033;-61
2022/03/29 08:32:47;;;;;;;8.55;4.00;;;17.50;58.80;;;;;;5046891;28;20032;-61
2022/03/29 08:35:13;;;;;;;7.22;3.67;;;17.40;58.70;;;;;;5048109;28;20032;-61
2022/03/29 08:37:39;;;;;;;9.52;4.00;;;17.50;58.70;;;;;;5047343;28;20068;-61
2022/03/29 08:40:13;;;;;;;8.25;3.80;;;17.50;58.60;;;;;;5042662;28;20032;-61
2022/03/29 08:42:42;;;;;;;9.98;4.10;;;17.50;58.70;;;;;;5042739;28;20457;-61
2022/03/29 08:45:09;;;;;;;11.23;4.20;;;17.50;58.60;;;;;;5042623;28;20104;-61
2022/03/29 08:47:35;;;;;;;8.18;3.85;;;17.50;58.50;;;;;;5045384;28;20029;-61
2022/03/29 08:50:02;;;;;;;10.05;3.97;;;17.50;58.50;;;;;;5045808;28;20173;-61
2022/03/29 08:52:27;;;;;;;9.77;3.95;;;17.50;58.50;;;;;;5045633;28;20123;-61
2022/03/29 08:54:53;;;;;;;10.35;4.13;;;17.50;58.50;;;;;;5044993;28;20515;-61
2022/03/29 08:57:19;;;;;;;10.02;4.00;;;17.50;58.50;;;;;;5042143;28;20509;-61
2022/03/29 08:59:44;;;;;;;8.23;3.60;;;17.50;58.30;;;;;;5046055;28;20017;-61
2022/03/29 09:02:18;;;;;;;11.00;4.40;;;17.50;58.30;;;;;;5046561;28;20033;-61
2022/03/29 09:04:44;;;;;;;7.25;3.47;;;17.50;58.30;;;;;;5043943;28;20485;-61
2022/03/29 09:07:10;;;;;;;8.45;3.90;;;17.50;58.40;;;;;;5045237;28;20021;-62
2022/03/29 09:09:38;;;;;;;10.02;4.13;;;17.50;58.30;;;;;;5045790;28;20024;-61
2022/03/29 09:12:17;;;;;;;8.57;3.80;;;17.50;58.30;;;;;;5045721;28;20040;-61
2022/03/29 09:14:57;;;;;;;9.95;3.88;;;17.50;58.30;;;;;;5037402;28;20033;-62
2022/03/29 09:17:27;;;;;;;7.22;3.70;;;17.50;58.30;;;;;;5047644;28;20409;-61
2022/03/29 09:19:55;;;;;;;7.82;3.70;;;17.50;58.30;;;;;;5045600;28;20020;-62
2022/03/29 09:22:36;;;;;;;8.18;3.85;;;17.50;58.30;;;;;;5045077;28;20040;-61
2022/03/29 09:25:03;;;;;;;8.30;3.97;;;17.50;58.30;;;;;;5042266;28;20021;-61
2022/03/29 09:27:29;;;;;;;8.68;3.95;;;17.50;58.30;;;;;;5044609;28;20029;-61
2022/03/29 09:30:08;;;;;;;10.65;4.18;;;17.50;58.30;;;;;;5044969;28;20033;-62
2022/03/29 09:32:34;;;;;;;8.15;3.70;;;17.50;58.30;;;;;;5044857;28;20021;-62
2022/03/29 09:35:04;;;;;;;7.75;3.75;;;17.50;58.40;;;;;;5044378;28;20037;-61
2022/03/29 09:37:36;;;;;;;8.75;4.15;;;17.50;58.40;;;;;;5042660;28;20053;-61
2022/03/29 09:40:02;;;;;;;9.73;4.28;;;17.50;58.30;;;;;;5044676;28;20052;-61
2022/03/29 09:42:28;;;;;;;6.55;3.47;;;17.40;58.30;;;;;;5043411;28;20132;-62
2022/03/29 09:44:55;;;;;;;10.13;4.20;;;17.50;58.40;;;;;;5045056;28;20464;-61
2022/03/29 09:47:22;;;;;;;8.73;3.80;;;17.40;58.30;;;;;;5045815;28;20478;-62
2022/03/29 09:50:08;;;;;;;10.52;4.22;;;17.40;58.30;;;;;;5044038;28;20408;-61
2022/03/29 09:52:41;;;;;;;6.97;3.92;;;17.40;58.30;;;;;;5040430;28;20509;-61
2022/03/29 09:55:15;;;;;;;8.18;3.90;;;17.40;58.30;;;;;;5038080;28;20029;-61
2022/03/29 09:57:45;;;;;;;7.22;3.70;;;17.50;58.40;;;;;;5045000;28;20029;-62
2022/03/29 10:00:14;;;;;;;8.40;4.00;;;17.50;58.40;;;;;;5044665;28;20397;-61
2022/03/29 10:02:40;;;;;;;8.00;4.00;;;17.50;58.40;;;;;;5044105;28;20569;-62
2022/03/29 10:05:06;;;;;;;11.13;3.95;;;17.40;58.30;;;;;;5045715;28;20226;-61
2022/03/29 10:07:49;;;;;;;9.18;4.10;;;17.50;58.40;;;;;;5050156;28;20510;-62
2022/03/29 10:10:15;;;;;;;9.38;3.83;;;17.50;58.40;;;;;;5032801;28;20032;-61
2022/03/29 10:12:41;;;;;;;8.45;4.00;;;17.50;58.40;;;;;;5047657;28;20024;-61
2022/03/29 10:15:07;;;;;;;7.95;4.00;;;17.40;58.30;;;;;;5048967;28;20029;-62
2022/03/29 10:17:32;;;;;;;8.10;3.78;;;17.50;58.40;;;;;;5045532;28;20032;-62
2022/03/29 10:19:59;;;;;;;10.38;4.07;;;17.50;58.30;;;;;;5048436;28;20040;-62
2022/03/29 10:22:25;;;;;;;8.25;3.70;;;17.40;58.20;;;;;;5048499;28;20048;-61
2022/03/29 10:24:51;;;;;;;10.10;4.50;;;17.50;58.30;;;;;;5047121;28;20029;-62
2022/03/29 10:27:17;;;;;;;8.88;3.72;;;17.50;58.30;;;;;;5048770;28;20032;-61
2022/03/29 10:29:45;;;;;;;9.63;3.88;;;17.50;59.20;;;;;;5048413;28;20029;-61
2022/03/29 10:32:10;;;;;;;8.55;3.97;;;17.50;58.10;;;;;;5045520;28;20135;-61
2022/03/29 10:34:39;;;;;;;8.18;3.83;;;17.50;58.20;;;;;;5043832;28;20123;-61
2022/03/29 10:37:05;;;;;;;8.07;4.00;;;17.50;58.30;;;;;;5048685;28;20041;-62
2022/03/29 10:39:50;;;;;;;7.55;3.70;;;17.50;58.30;;;;;;5048694;28;20052;-62
2022/03/29 10:42:38;;;;;;;9.38;3.80;;;17.50;58.30;;;;;;5048969;28;20044;-61
2022/03/29 10:45:13;;;;;;;8.32;3.85;;;17.50;58.30;;;;;;5049555;28;20517;-62
2022/03/29 10:47:38;;;;;;;;;;;17.50;58.20;;;;;;5049336;28;20037;-61
2022/03/29 10:50:06;;;;;;;9.85;3.80;;;17.50;58.20;;;;;;5048292;28;19948;-62
2022/03/29 10:52:38;;;;;;;8.25;4.18;;;17.50;58.20;;;;;;5048731;28;20065;-62
2022/03/29 10:55:28;;;;;;;8.65;4.00;;;17.50;58.10;;;;;;5047892;28;20072;-62
2022/03/29 10:58:08;;;;;;;6.97;3.60;;;17.50;58.20;;;;;;5044575;28;20453;-61
2022/03/29 11:00:34;;;;;;;8.63;4.22;;;17.50;58.10;;;;;;5048955;28;20021;-62
2022/03/29 11:03:07;;;;;;;9.65;4.38;;;17.60;58.20;;;;;;5046638;28;20033;-62
2022/03/29 11:05:34;;;;;;;9.48;4.28;;;17.60;58.10;;;;;;5050260;28;20083;-62
2022/03/29 11:07:59;;;;;;;8.27;4.10;;;17.60;58.00;;;;;;5048632;28;20095;-61
2022/03/29 11:10:42;;;;;;;9.75;4.53;;;17.60;58.00;;;;;;5048437;28;20064;-61
2022/03/29 11:13:46;;;;;;;8.98;4.43;;;17.60;58.00;;;;;;5044634;28;20052;-61
2022/03/29 11:16:29;;;;;;;9.32;4.00;;;17.60;57.90;;;;;;5026069;28;20137;-62
2022/03/29 11:18:55;;;;;;;9.45;4.10;;;17.70;57.80;;;;;;5026385;28;20394;-62
2022/03/29 11:21:32;;;;;;;9.00;4.40;;;17.70;57.80;;;;;;5025350;28;20045;-62
2022/03/29 11:23:59;;;;;;;9.73;4.45;;;17.70;57.80;;;;;;5025953;28;20049;-62
2022/03/29 11:26:24;;;;;;;11.25;4.80;;;17.70;57.70;;;;;;5027019;28;20530;-62
2022/03/29 11:28:56;;;;;;;8.88;4.38;;;17.70;57.60;;;;;;5025381;28;20033;-61
2022/03/29 11:31:23;;;;;;;9.02;4.30;;;17.80;57.70;;;;;;5025868;28;20120;-61
2022/03/29 11:33:52;;;;;;;10.10;4.53;;;17.70;57.60;;;;;;5009758;28;20164;-62
2022/03/29 11:36:19;;;;;;;8.88;4.13;;;17.80;57.60;;;;;;5008093;28;20109;-62
2022/03/29 11:38:44;;;;;;;12.00;4.40;;;17.80;57.60;;;;;;5024877;28;20606;-62
2022/03/29 11:41:26;;;;;;;9.95;4.57;;;17.80;57.50;;;;;;5027312;28;20152;-61
2022/03/29 11:44:02;;;;;;;9.23;4.10;;;17.80;57.50;;;;;;5024251;28;20095;-62
2022/03/29 11:46:51;;;;;;;9.88;4.53;;;17.90;57.50;;;;;;5031662;28;20036;-62
2022/03/29 11:49:18;;;;;;;8.07;4.25;;;17.90;57.40;;;;;;5044932;28;20072;-62
2022/03/29 11:51:43;;;;;;;8.65;4.28;;;17.90;57.40;;;;;;5046943;28;20432;-62
2022/03/29 11:54:09;;;;;;;8.77;4.32;;;18.00;57.30;;;;;;5041767;28;20029;-62
2022/03/29 11:56:38;;;;;;;9.50;4.20;;;18.00;57.20;;;;;;5046507;28;20090;-62
2022/03/29 11:59:06;;;;;;;10.13;4.15;;;18.00;57.20;;;;;;5048503;28;20021;-62
2022/03/29 12:01:32;;;;;;;7.68;4.18;;;18.00;57.10;;;;;;5048062;28;20148;-62
2022/03/29 12:03:59;;;;;;;9.48;4.80;;;18.10;57.10;;;;;;5047714;28;20036;-62
2022/03/29 12:06:27;;;;;;;8.77;4.20;;;18.10;57.10;;;;;;5046830;28;20025;-62
2022/03/29 12:08:57;;;;;;;10.80;4.78;;;18.10;57.00;;;;;;5047082;28;20162;-61
2022/03/29 12:11:25;;;;;;;12.13;4.50;;;18.10;57.10;;;;;;5046445;28;20090;-62
2022/03/29 12:14:09;;;;;;;9.30;4.13;;;18.10;57.00;;;;;;5047090;28;20166;-62
2022/03/29 12:16:36;;;;;;;10.98;5.10;;;18.10;57.00;;;;;;5046626;28;20057;-62
2022/03/29 12:19:08;;;;;;;10.40;4.90;;;18.10;57.10;;;;;;5047397;28;20037;-61
2022/03/29 12:21:34;;;;;;;10.65;4.63;;;18.10;57.10;;;;;;5047103;28;20033;-61
2022/03/29 12:24:07;;;;;;;9.63;4.72;;;18.10;57.10;;;;;;5045841;28;20052;-61
2022/03/29 12:26:33;;;;;;;11.07;4.72;;;18.10;57.10;;;;;;5046981;28;20029;-62
2022/03/29 12:28:59;;;;;;;9.93;4.55;;;18.10;57.20;;;;;;5027843;28;20029;-62
2022/03/29 12:31:27;;;;;;;11.88;4.78;;;18.10;57.20;;;;;;5046705;28;20396;-61
2022/03/29 12:33:53;;;;;;;9.13;4.90;;;18.00;57.20;;;;;;5044051;28;20036;-62
2022/03/29 12:36:19;;;;;;;10.27;4.68;;;18.10;57.30;;;;;;5030059;28;20020;-62
2022/03/29 12:38:51;;;;;;;10.88;4.85;;;18.10;57.30;;;;;;5046039;28;20070;-62
2022/03/29 12:41:37;;;;;;;10.55;4.97;;;18.10;57.30;;;;;;5042877;28;20064;-62
2022/03/29 12:44:10;;;;;;;9.15;4.53;;;18.10;57.30;;;;;;5045898;28;20584;-61
2022/03/29 12:46:37;;;;;;;11.43;4.53;;;18.10;57.40;;;;;;5042452;28;20482;-62
2022/03/29 12:49:03;;;;;;;11.38;4.70;;;18.10;57.30;;;;;;5047032;28;20082;-62
2022/03/29 12:51:34;;;;;;;12.30;4.97;;;18.10;57.40;;;;;;5046351;28;20409;-62